Time;durP1;ratioP1;P1;durP2;ratioP2;P2;SDS_P1;SDS_P2;PMS_P1;PMS_P2;Temp;Humidity;BMP_temperature;BMP_pressure;BME280_temperature;BME280_humidity;BME280_pressure;Samples;Min_cycle;Max_cycle;Signal;HPM_P1;HPM_P2
2022/02/09 00:04:26;;;;;;;4.60;3.23;;;;;;;;;;5033880;28;20408;-50
2022/02/09 00:09:22;;;;;;;4.63;3.63;;;;;;;;;;5034495;28;20473;-49
2022/02/09 00:14:41;;;;;;;3.83;3.30;;;;;;;;;;5033550;28;20441;-49
2022/02/09 00:36:05;;;;;;;5.00;4.07;;;;;;;;;;5034095;28;20460;-48
2022/02/09 01:38:19;;;;;;;2.53;2.43;;;;;;;;;;5013202;28;20371;-49
2022/02/09 01:44:25;;;;;;;2.83;2.53;;;;;;;;;;5013084;28;20408;-49
2022/02/09 01:56:59;;;;;;;3.43;1.90;;;;;;;;;;5013044;28;20457;-49
2022/02/09 01:59:25;;;;;;;2.33;2.10;;;;;;;;;;5012358;28;20489;-48
2022/02/09 02:01:51;;;;;;;3.00;2.40;;;;;;;;;;5012534;28;20418;-48
2022/02/09 02:04:24;;;;;;;3.50;2.33;;;;;;;;;;5030239;28;20437;-48
2022/02/09 02:06:51;;;;;;;4.73;1.97;;;;;;;;;;5032240;28;20472;-48
2022/02/09 02:09:18;;;;;;;4.30;2.37;;;;;;;;;;5030914;28;20994;-48
2022/02/09 02:12:10;;;;;;;2.10;2.00;;;;;;;;;;5032123;28;20404;-48
2022/02/09 02:14:40;;;;;;;4.63;1.97;;;;;;;;;;5031486;28;20417;-48
2022/02/09 02:19:38;;;;;;;6.50;2.40;;;;;;;;;;5031728;28;20914;-49
2022/02/09 02:22:27;;;;;;;2.40;2.20;;;;;;;;;;5031976;28;20769;-50
2022/02/09 02:27:45;;;;;;;2.27;2.07;;;;;;;;;;5031434;28;20461;-49
2022/02/09 02:33:06;;;;;;;4.63;2.00;;;;;;;;;;5031046;28;20417;-50
2022/02/09 02:38:48;;;;;;;4.03;3.63;;;;;;;;;;5031865;28;20975;-49
2022/02/09 03:10:55;;;;;;;7.30;5.43;;;;;;;;;;5031061;28;20408;-49
2022/02/09 03:13:27;;;;;;;7.70;6.20;;;;;;;;;;5031079;28;20414;-49
2022/02/09 03:16:02;;;;;;;8.50;6.10;;;;;;;;;;5031032;28;20408;-49
2022/02/09 03:23:53;;;;;;;7.77;6.43;;;;;;;;;;5031090;28;20397;-48
2022/02/09 03:26:41;;;;;;;6.20;5.60;;;;;;;;;;5030913;28;20460;-49
2022/02/09 03:48:31;;;;;;;5.10;4.50;;;;;;;;;;5034998;28;20397;-50
2022/02/09 03:51:15;;;;;;;3.90;3.47;;;;;;;;;;5033318;28;20484;-48
2022/02/09 03:57:00;;;;;;;4.00;3.67;;;;;;;;;;5000942;28;20417;-48
2022/02/09 03:59:29;;;;;;;4.83;4.37;;;;;;;;;;5034527;28;20424;-49
2022/02/09 04:01:55;;;;;;;4.83;4.00;;;;;;;;;;5034541;28;20430;-49
2022/02/09 04:04:21;;;;;;;4.73;4.23;;;;;;;;;;5033731;28;20464;-48
2022/02/09 04:06:50;;;;;;;5.87;4.00;;;;;;;;;;5034489;28;20457;-48
2022/02/09 04:09:19;;;;;;;4.80;4.23;;;;;;;;;;5034238;28;20507;-48
2022/02/09 04:11:57;;;;;;;8.30;5.60;;;;;;;;;;5034507;28;20398;-49
2022/02/09 04:14:32;;;;;;;9.73;5.00;;;;;;;;;;5034475;28;20398;-49
2022/02/09 04:19:44;;;;;;;9.80;5.63;;;;;;;;;;5034236;28;20808;-48
2022/02/09 04:36:05;;;;;;;6.23;5.40;;;;;;;;;;5034208;28;20521;-49
2022/02/09 04:41:54;;;;;;;6.17;5.20;;;;;;;;;;5034300;28;20413;-48
2022/02/09 04:54:29;;;;;;;5.87;5.37;;;;;;;;;;5033912;28;20406;-48
2022/02/09 05:27:17;;;;;;;7.30;6.40;;;;;;;;;;5033141;28;20534;-49
2022/02/09 05:29:26;;;;;;;6.93;6.23;;;;;;;;;;5029506;28;20874;-47
2022/02/09 05:31:52;;;;;;;6.60;5.57;;;;;;;;;;5032978;28;20409;-49
2022/02/09 05:34:18;;;;;;;7.60;6.07;;;;;;;;;;5032938;28;20408;-49
2022/02/09 05:36:44;;;;;;;5.40;4.40;;;;;;;;;;5033053;28;20410;-48
2022/02/09 05:39:11;;;;;;;4.60;4.13;;;;;;;;;;5031599;28;20450;-49
2022/02/09 05:41:43;;;;;;;4.43;3.93;;;;;;;;;;5032915;28;20416;-49
2022/02/09 05:44:10;;;;;;;9.07;4.17;;;;;;;;;;5032973;28;20456;-51
2022/02/09 05:47:28;;;;;;;6.10;4.43;;;;;;;;;;5032815;28;20961;-48
2022/02/09 05:52:59;;;;;;;3.93;3.63;;;;;;;;;;4999323;28;20436;-50
2022/02/09 05:55:47;;;;;;;4.60;3.93;;;;;;;;;;5032702;28;20393;-49
2022/02/09 05:58:32;;;;;;;4.77;4.33;;;;;;;;;;5032743;28;20393;-48
2022/02/09 06:00:58;;;;;;;4.40;3.97;;;;;;;;;;5031642;28;20402;-48
2022/02/09 06:03:24;;;;;;;5.60;5.10;;;;;;;;;;5032373;28;20458;-48
2022/02/09 06:05:50;;;;;;;5.63;4.43;;;;;;;;;;5030311;28;20468;-48
2022/02/09 06:08:16;;;;;;;5.67;4.50;;;;;;;;;;5032386;28;20402;-49
2022/02/09 06:10:50;;;;;;;7.63;5.37;;;;;;;;;;5032014;28;21002;-48
2022/02/09 06:13:27;;;;;;;9.70;5.73;;;;;;;;;;5032258;28;20403;-49
2022/02/09 06:21:22;;;;;;;4.80;4.40;;;;;;;;;;5032175;28;20405;-49
2022/02/09 06:23:48;;;;;;;5.00;4.37;;;;;;;;;;5031357;28;20398;-49
2022/02/09 06:26:15;;;;;;;9.93;4.90;;;;;;;;;;5031397;28;20800;-49
2022/02/09 06:28:41;;;;;;;5.17;4.60;;;;;;;;;;5031012;28;20493;-50
2022/02/09 06:31:07;;;;;;;3.77;3.47;;;;;;;;;;5013456;28;20505;-49
2022/02/09 06:33:33;;;;;;;4.73;4.20;;;;;;;;;;5031779;28;20976;-47
2022/02/09 06:36:02;;;;;;;4.47;4.07;;;;;;;;;;5030116;28;20437;-47
2022/02/09 06:38:29;;;;;;;5.87;4.23;;;;;;;;;;5031211;28;20402;-47
2022/02/09 06:40:56;;;;;;;6.43;3.93;;;;;;;;;;5030860;28;20926;-47
2022/02/09 06:43:22;;;;;;;5.67;3.80;;;;;;;;;;5031034;28;20409;-48
2022/02/09 06:45:48;;;;;;;5.73;4.10;;;;;;;;;;5030770;28;20413;-50
2022/02/09 06:48:16;;;;;;;4.37;3.90;;;;;;;;;;5031090;28;20394;-50
2022/02/09 06:50:47;;;;;;;5.10;4.60;;;;;;;;;;5030536;28;20481;-47
2022/02/09 06:56:24;;;;;;;5.50;4.37;;;;;;;;;;5029491;28;20509;-47
2022/02/09 07:01:01;;;;;;;8.50;5.70;;;;;;;;;;5031091;28;20916;-47
2022/02/09 07:03:27;;;;;;;8.90;6.40;;;;;;;;;;5031194;28;20398;-47
2022/02/09 07:05:53;;;;;;;12.73;6.20;;;;;;;;;;5030379;28;20473;-48
2022/02/09 07:08:19;;;;;;;9.00;6.17;;;;;;;;;;5031344;28;20414;-48
2022/02/09 07:10:45;;;;;;;8.30;6.93;;;;;;;;;;5031140;28;20425;-49
2022/02/09 07:13:11;;;;;;;9.53;6.73;;;;;;;;;;5031342;28;20410;-48
2022/02/09 07:15:44;;;;;;;9.47;7.30;;;;;;;;;;5031451;28;20414;-49
2022/02/09 07:18:13;;;;;;;8.03;6.63;;;;;;;;;;5031274;28;20410;-47
2022/02/09 07:23:31;;;;;;;10.93;8.60;;;;;;;;;;5031284;28;20492;-48
2022/02/09 07:28:32;;;;;;;12.40;8.03;;;;;;;;;;5030838;28;20480;-48
2022/02/09 07:30:59;;;;;;;11.33;7.10;;;;;;;;;;5031051;28;20761;-48
2022/02/09 07:33:26;;;;;;;9.97;7.10;;;;;;;;;;5030792;28;20408;-47
2022/02/09 07:35:52;;;;;;;7.83;6.60;;;;;;;;;;5029919;28;20445;-47
2022/02/09 07:38:18;;;;;;;8.83;7.37;;;;;;;;;;5030963;28;20429;-47
2022/02/09 07:40:44;;;;;;;12.63;7.23;;;;;;;;;;5030723;28;20422;-48
2022/02/09 07:43:21;;;;;;;9.80;7.23;;;;;;;;;;5030799;28;20861;-48
2022/02/09 07:50:49;;;;;;;7.03;6.37;;;;;;;;;;5030702;28;20432;-47
2022/02/09 07:55:46;;;;;;;9.50;6.63;;;;;;;;;;5030812;28;20400;-49
2022/02/09 07:58:12;;;;;;;10.90;6.80;;;;;;;;;;5030791;28;20785;-47
2022/02/09 08:00:38;;;;;;;8.97;6.63;;;;;;;;;;5030425;28;20528;-47
2022/02/09 08:03:05;;;;;;;11.90;7.13;;;;;;;;;;5030567;28;20402;-47
2022/02/09 08:05:31;;;;;;;10.23;7.40;;;;;;;;;;5029874;28;20418;-46
2022/02/09 08:07:57;;;;;;;8.63;6.13;;;;;;;;;;5030538;28;20457;-47
2022/02/09 08:10:37;;;;;;;7.10;6.33;;;;;;;;;;5030362;28;20484;-47
2022/02/09 08:24:12;;;;;;;9.83;7.43;;;;;;;;;;5031226;28;20406;-49
2022/02/09 08:29:19;;;;;;;16.27;7.57;;;;;;;;;;5033823;28;20541;-47
2022/02/09 08:34:34;;;;;;;10.47;7.57;;;;;;;;;;5005805;28;20433;-49
2022/02/09 08:37:01;;;;;;;9.03;7.13;;;;;;;;;;5033068;28;20992;-48
2022/02/09 08:39:27;;;;;;;11.57;7.80;;;;;;;;;;5032671;28;20449;-48
2022/02/09 08:41:53;;;;;;;10.53;7.77;;;;;;;;;;5033960;28;20412;-50
2022/02/09 08:44:19;;;;;;;11.97;7.27;;;;;;;;;;5033724;28;20777;-49
2022/02/09 08:46:46;;;;;;;8.70;6.60;;;;;;;;;;5033878;28;20464;-50
2022/02/09 08:49:12;;;;;;;8.60;6.93;;;;;;;;;;5033722;28;20414;-47
2022/02/09 08:51:38;;;;;;;8.20;6.70;;;;;;;;;;5033871;28;20436;-47
2022/02/09 08:54:05;;;;;;;10.07;7.50;;;;;;;;;;5032552;28;20912;-49
2022/02/09 08:56:32;;;;;;;7.70;6.43;;;;;;;;;;5031912;28;20409;-47
2022/02/09 08:58:58;;;;;;;10.13;6.87;;;;;;;;;;5031393;28;21001;-49
2022/02/09 09:01:47;;;;;;;9.00;6.70;;;;;;;;;;5032757;28;20410;-50
2022/02/09 09:04:22;;;;;;;8.37;6.37;;;;;;;;;;5033092;28;20452;-49
2022/02/09 09:06:59;;;;;;;8.73;6.47;;;;;;;;;;5032384;28;20464;-47
2022/02/09 09:09:38;;;;;;;8.73;7.40;;;;;;;;;;5033112;28;20433;-47
2022/02/09 09:15:18;;;;;;;8.83;6.33;;;;;;;;;;5042781;28;20576;-47
2022/02/09 09:17:59;;;;;;;7.20;5.93;;;;;;;;;;5032059;28;20434;-47
2022/02/09 10:02:27;;;;;;;4.33;3.40;;;;;;;;;;5012350;28;20811;-49
2022/02/09 10:32:47;;;;;;;3.60;3.30;;;;;;;;;;5031612;28;22791;-48
2022/02/09 10:37:46;;;;;;;2.83;2.53;;;;;;;;;;5030937;28;20478;-47
2022/02/09 10:40:28;;;;;;;4.53;3.00;;;;;;;;;;5030948;28;20454;-48
2022/02/09 10:42:59;;;;;;;4.37;2.70;;;;;;;;;;5031466;28;20400;-46
2022/02/09 10:45:48;;;;;;;3.13;2.83;;;;;;;;;;5030324;28;20513;-48
2022/02/09 10:48:36;;;;;;;4.33;2.67;;;;;;;;;;5031126;28;20426;-50
2022/02/09 10:51:48;;;;;;;2.90;2.70;;;;;;;;;;5030560;28;20428;-50
2022/02/09 10:54:16;;;;;;;3.00;2.50;;;;;;;;;;5030955;28;20417;-47
2022/02/09 10:56:44;;;;;;;3.43;3.13;;;;;;;;;;5031249;28;20406;-47
2022/02/09 10:59:11;;;;;;;2.43;2.23;;;;;;;;;;5031026;28;21163;-47
2022/02/09 11:01:37;;;;;;;4.30;2.97;;;;;;;;;;5030961;28;20458;-47
2022/02/09 11:04:04;;;;;;;3.53;2.93;;;;;;;;;;5031273;28;20501;-48
2022/02/09 11:06:34;;;;;;;4.00;3.43;;;;;;;;;;5031211;28;20453;-48
2022/02/09 11:09:01;;;;;;;3.17;2.90;;;;;;;;;;5029383;28;20477;-48
2022/02/09 11:11:29;;;;;;;3.63;3.27;;;;;;;;;;5031112;28;20893;-47
2022/02/09 11:13:55;;;;;;;4.40;3.00;;;;;;;;;;5031041;28;20813;-48
2022/02/09 11:16:23;;;;;;;4.40;3.17;;;;;;;;;;5031173;28;20418;-48
2022/02/09 11:18:49;;;;;;;4.17;3.10;;;;;;;;;;5030678;28;20533;-49
2022/02/09 11:21:16;;;;;;;3.50;3.20;;;;;;;;;;5030952;28;20411;-49
2022/02/09 11:23:57;;;;;;;5.43;3.23;;;;;;;;;;5030763;28;20405;-47
2022/02/09 11:26:37;;;;;;;4.40;4.00;;;;;;;;;;5030257;28;20460;-48
2022/02/09 11:32:48;;;;;;;8.03;4.00;;;;;;;;;;5030955;28;20461;-47
2022/02/09 11:43:17;;;;;;;4.40;3.77;;;;;;;;;;5011943;28;20457;-49
2022/02/09 11:46:04;;;;;;;4.57;4.00;;;;;;;;;;5030759;28;20427;-47
2022/02/09 11:57:34;;;;;;;4.90;4.10;;;;;;;;;;5036383;28;20457;-48
2022/02/09 12:00:33;;;;;;;6.13;4.03;;;;;;;;;;5051123;28;20497;-50
2022/02/09 12:08:51;;;;;;;5.20;3.80;;;;;;;;;;5034612;28;20477;-47
2022/02/09 12:11:38;;;;;;;4.87;3.80;;;;;;;;;;5034173;28;20414;-47
2022/02/09 12:19:23;;;;;;;6.70;4.00;;;;;;;;;;5034608;28;20464;-48
2022/02/09 12:24:19;;;;;;;7.13;4.67;;;;;;;;;;5034188;28;20425;-48
2022/02/09 12:26:57;;;;;;;5.37;3.60;;;;;;;;;;5033725;28;20457;-48
2022/02/09 12:29:23;;;;;;;4.47;4.00;;;;;;;;;;5033327;28;20450;-47
2022/02/09 12:31:49;;;;;;;5.10;3.97;;;;;;;;;;5033754;28;20943;-48
2022/02/09 12:34:25;;;;;;;4.93;4.00;;;;;;;;;;5033191;28;20464;-48
2022/02/09 12:36:52;;;;;;;6.90;3.93;;;;;;;;;;5036496;28;20925;-47
2022/02/09 12:39:19;;;;;;;4.60;3.93;;;;;;;;;;5032755;28;20445;-50
2022/02/09 12:41:45;;;;;;;5.97;4.13;;;;;;;;;;5030378;28;20843;-47
2022/02/09 12:44:11;;;;;;;5.70;3.33;;;;;;;;;;5029733;28;20461;-48
2022/02/09 12:46:43;;;;;;;4.13;3.37;;;;;;;;;;5010015;28;20454;-50
2022/02/09 12:49:10;;;;;;;4.77;3.97;;;;;;;;;;5030249;28;20435;-48
2022/02/09 12:51:37;;;;;;;5.63;4.20;;;;;;;;;;5033444;28;20974;-47
2022/02/09 12:54:03;;;;;;;5.00;3.40;;;;;;;;;;5033589;28;20486;-49
2022/02/09 12:56:30;;;;;;;6.10;3.87;;;;;;;;;;5031529;28;20437;-50
2022/02/09 12:59:02;;;;;;;4.63;3.40;;;;;;;;;;5031501;28;20544;-50
2022/02/09 13:01:38;;;;;;;4.23;3.60;;;;;;;;;;5032466;28;20421;-50
2022/02/09 13:04:04;;;;;;;7.23;3.90;;;;;;;;;;5032264;28;20406;-49
2022/02/09 13:06:30;;;;;;;4.30;3.53;;;;;;;;;;5032520;28;21046;-49
2022/02/09 13:08:56;;;;;;;4.90;3.60;;;;;;;;;;5032046;28;21015;-50
2022/02/09 13:11:34;;;;;;;4.53;3.37;;;;;;;;;;5032076;28;20509;-49
2022/02/09 13:14:09;;;;;;;5.90;3.57;;;;;;;;;;5033470;28;20453;-50
2022/02/09 13:19:24;;;;;;;5.93;4.67;;;;;;;;;;5033555;28;20438;-50
2022/02/09 13:53:21;;;;;;;4.50;3.73;;;;;;;;;;5032828;28;20398;-49
2022/02/09 14:19:33;;;;;;;4.13;3.50;;;;;;;;;;5029226;28;20446;-49
2022/02/09 14:54:27;;;;;;;4.03;2.87;;;;;;;;;;5031644;28;20402;-50
2022/02/09 14:57:20;;;;;;;9.60;3.10;;;;;;;;;;5031557;28;20407;-49
2022/02/09 15:02:11;;;;;;;3.90;3.10;;;;;;;;;;5031149;28;20409;-49
2022/02/09 15:09:49;;;;;;;3.50;3.20;;;;;;;;;;5030900;28;20444;-49
2022/02/09 15:12:21;;;;;;;4.83;3.20;;;;;;;;;;5031264;28;20402;-49
2022/02/09 15:22:44;;;;;;;3.53;2.83;;;;;;;;;;4998503;28;20895;-49
2022/02/09 15:25:17;;;;;;;3.77;2.40;;;;;;;;;;5030864;28;20936;-49
2022/02/09 15:27:44;;;;;;;4.93;2.33;;;;;;;;;;5030888;28;20823;-50
2022/02/09 15:30:10;;;;;;;3.30;3.00;;;;;;;;;;5030734;28;20915;-49
2022/02/09 15:32:41;;;;;;;4.87;3.10;;;;;;;;;;5030343;28;20404;-50
2022/02/09 15:35:17;;;;;;;4.10;2.43;;;;;;;;;;5030473;28;20493;-49
2022/02/09 15:37:50;;;;;;;3.20;2.27;;;;;;;;;;5031183;28;20402;-50
2022/02/09 15:40:34;;;;;;;5.50;2.80;;;;;;;;;;5030690;28;20422;-49
2022/02/09 16:08:12;;;;;;;2.13;1.97;;;;;;;;;;5030755;28;20992;-50
2022/02/09 16:19:03;;;;;;;5.03;2.33;;;;;;;;;;5030711;28;20441;-50
2022/02/09 16:23:50;;;;;;;2.50;2.30;;;;;;;;;;5030181;28;20486;-50
2022/02/09 16:45:03;;;;;;;3.30;1.97;;;;;;;;;;5031442;28;20497;-50
2022/02/09 16:50:15;;;;;;;3.13;2.70;;;;;;;;;;5033370;28;20421;-49
2022/02/09 16:52:48;;;;;;;3.00;2.17;;;;;;;;;;5033832;28;20414;-49
2022/02/09 17:08:26;;;;;;;3.20;2.10;;;;;;;;;;5033671;28;20477;-50
2022/02/09 17:19:36;;;;;;;5.33;2.50;;;;;;;;;;5033204;28;20449;-49
2022/02/09 17:22:02;;;;;;;3.03;2.30;;;;;;;;;;5033179;28;20413;-49
2022/02/09 17:24:28;;;;;;;2.80;2.60;;;;;;;;;;5033192;28;20914;-49
2022/02/09 17:26:55;;;;;;;4.70;3.00;;;;;;;;;;5032931;28;20540;-49
2022/02/09 17:29:36;;;;;;;4.30;3.03;;;;;;;;;;5031548;28;20487;-49
2022/02/09 17:32:13;;;;;;;3.73;2.87;;;;;;;;;;5033049;28;20444;-49
2022/02/09 17:35:00;;;;;;;4.40;2.50;;;;;;;;;;5033042;28;20456;-49
2022/02/09 17:53:36;;;;;;;6.03;3.47;;;;;;;;;;5032495;28;20394;-49
2022/02/09 17:56:06;;;;;;;5.43;3.20;;;;;;;;;;5032085;28;20406;-49
2022/02/09 17:58:46;;;;;;;7.97;3.70;;;;;;;;;;5032137;28;20807;-50
2022/02/09 18:01:15;;;;;;;8.10;4.80;;;;;;;;;;5032439;28;20394;-50
2022/02/09 18:03:42;;;;;;;5.47;3.80;;;;;;;;;;5032330;28;20402;-49
2022/02/09 18:06:15;;;;;;;7.73;4.33;;;;;;;;;;5032425;28;20406;-50
2022/02/09 18:08:51;;;;;;;7.83;4.87;;;;;;;;;;5032449;28;20426;-49
2022/02/09 18:58:18;;;;;;;5.33;3.80;;;;;;;;;;5034739;28;20489;-51
2022/02/09 19:03:05;;;;;;;3.70;3.30;;;;;;;;;;5035939;28;20421;-50
2022/02/09 19:05:38;;;;;;;6.93;3.93;;;;;;;;;;5035960;28;20444;-50
2022/02/09 19:16:25;;;;;;;9.17;4.17;;;;;;;;;;5036063;28;20405;-51
2022/02/09 19:32:08;;;;;;;5.33;4.83;;;;;;;;;;5033186;28;20432;-49
2022/02/09 19:48:34;;;;;;;6.00;5.50;;;;;;;;;;5034464;28;20497;-52
2022/02/09 19:56:15;;;;;;;11.27;8.73;;;;;;;;;;5035121;28;20441;-50
2022/02/09 19:58:45;;;;;;;7.90;5.50;;;;;;;;;;5035822;28;20458;-49
2022/02/09 20:01:15;;;;;;;10.17;5.50;;;;;;;;;;5034862;28;20405;-48
2022/02/09 20:03:41;;;;;;;7.40;6.03;;;;;;;;;;5035847;28;20405;-50
2022/02/09 20:06:08;;;;;;;7.13;5.33;;;;;;;;;;5035700;28;20890;-50
2022/02/09 20:08:38;;;;;;;12.50;7.70;;;;;;;;;;5035102;28;20932;-50
2022/02/09 20:11:05;;;;;;;11.93;8.70;;;;;;;;;;5034498;28;20418;-49
2022/02/09 20:13:31;;;;;;;12.47;6.70;;;;;;;;;;5035149;28;20410;-52
2022/02/09 20:15:58;;;;;;;12.50;6.70;;;;;;;;;;5034920;28;20406;-50
2022/02/09 20:18:24;;;;;;;9.50;5.27;;;;;;;;;;5035685;28;20409;-50
2022/02/09 20:20:50;;;;;;;7.00;5.47;;;;;;;;;;5037486;28;20489;-51
2022/02/09 20:23:16;;;;;;;8.47;4.97;;;;;;;;;;5039732;28;20886;-51
2022/02/09 20:25:43;;;;;;;10.00;5.80;;;;;;;;;;5039669;28;20409;-51
2022/02/09 20:28:09;;;;;;;9.30;5.00;;;;;;;;;;5039307;28;20449;-50
2022/02/09 20:30:41;;;;;;;7.27;5.27;;;;;;;;;;5038619;28;20440;-51
2022/02/09 20:33:12;;;;;;;7.17;5.03;;;;;;;;;;5038388;28;20413;-50
2022/02/09 20:35:38;;;;;;;8.07;6.47;;;;;;;;;;5038116;28;20413;-50
2022/02/09 20:38:06;;;;;;;14.67;6.03;;;;;;;;;;5035537;28;20425;-51
2022/02/09 20:40:46;;;;;;;8.37;5.30;;;;;;;;;;5035710;28;20449;-51
2022/02/09 20:43:13;;;;;;;8.57;6.33;;;;;;;;;;5037486;28;20429;-51
2022/02/09 20:45:49;;;;;;;6.40;5.80;;;;;;;;;;5038145;28;20413;-50
2022/02/09 20:48:16;;;;;;;6.63;5.40;;;;;;;;;;5038457;28;20450;-51
2022/02/09 20:50:44;;;;;;;5.97;4.83;;;;;;;;;;5037064;28;20437;-52
2022/02/09 20:53:10;;;;;;;7.13;5.30;;;;;;;;;;5038055;28;20402;-50
2022/02/09 20:55:36;;;;;;;8.43;4.80;;;;;;;;;;5037974;28;20433;-50
2022/02/09 20:58:03;;;;;;;11.50;4.80;;;;;;;;;;5038239;28;20413;-51
2022/02/09 21:00:44;;;;;;;5.40;4.90;;;;;;;;;;5037511;28;20456;-52
2022/02/09 21:06:04;;;;;;;7.73;5.97;;;;;;;;;;5036725;28;20441;-51
2022/02/09 21:16:24;;;;;;;11.27;6.00;;;;;;;;;;5038169;28;20409;-52
2022/02/09 21:32:51;;;;;;;5.50;4.90;;;;;;;;;;5037427;28;20452;-49
2022/02/09 21:56:42;;;;;;;7.10;5.53;;;;;;;;;;5036990;28;20470;-50
2022/02/09 22:34:45;;;;;;;7.70;6.17;;;;;;;;;;5037957;28;20401;-50
2022/02/09 22:55:43;;;;;;;11.50;6.93;;;;;;;;;;5036695;28;20436;-50
2022/02/09 22:58:11;;;;;;;10.63;6.87;;;;;;;;;;5037073;28;20400;-51
2022/02/09 23:03:42;;;;;;;9.23;6.83;;;;;;;;;;5036341;28;20438;-49
2022/02/09 23:09:26;;;;;;;8.80;6.63;;;;;;;;;;5036050;28;20513;-49
2022/02/09 23:12:07;;;;;;;9.93;6.87;;;;;;;;;;5035297;28;20548;-51
2022/02/09 23:23:32;;;;;;;12.90;6.60;;;;;;;;;;5036144;28;20444;-47
2022/02/09 23:54:06;;;;;;;9.20;6.83;;;;;;;;;;5000427;28;20417;-49
